Time;durP1;ratioP1;P1;durP2;ratioP2;P2;SDS_P1;SDS_P2;PMS_P1;PMS_P2;Temp;Humidity;BMP_temperature;BMP_pressure;BME280_temperature;BME280_humidity;BME280_pressure;Samples;Min_cycle;Max_cycle;Signal;HPM_P1;HPM_P2
2021/11/27 00:02:19;;;;;;;6.75;2.70;;;;;;;-3.57;100.00;100098.16;2576146;55;20650;-66
2021/11/27 00:04:47;;;;;;;4.05;2.20;;;;;;;-3.57;100.00;100113.81;2576617;55;20113;-66
2021/11/27 00:07:15;;;;;;;3.72;2.40;;;;;;;-3.61;100.00;100108.72;2577395;55;20681;-67
2021/11/27 00:09:43;;;;;;;3.85;2.08;;;;;;;-3.62;100.00;100123.50;2577124;55;20527;-72
2021/11/27 00:12:12;;;;;;;7.35;3.95;;;;;;;-3.59;100.00;100123.44;2577588;55;20139;-72
2021/11/27 00:14:39;;;;;;;7.12;2.60;;;;;;;-3.58;100.00;100119.94;2576366;55;20113;-72
2021/11/27 00:17:09;;;;;;;4.68;2.42;;;;;;;-3.52;100.00;100132.78;2576752;55;20116;-66
2021/11/27 00:19:39;;;;;;;5.07;2.65;;;;;;;-3.54;100.00;100134.59;2575439;55;20665;-72
2021/11/27 00:22:07;;;;;;;4.37;2.60;;;;;;;-3.69;100.00;100103.72;2575722;55;20128;-72
2021/11/27 00:24:34;;;;;;;6.07;3.28;;;;;;;-3.48;100.00;100137.94;2575291;55;20642;-66
2021/11/27 00:27:03;;;;;;;14.87;5.22;;;;;;;-3.49;100.00;100137.09;2575894;55;20135;-66
2021/11/27 00:29:31;;;;;;;9.13;4.55;;;;;;;-3.49;100.00;100131.87;2575858;55;20121;-66
2021/11/27 00:31:59;;;;;;;5.28;3.05;;;;;;;-3.44;100.00;100147.41;2575705;55;20113;-71
2021/11/27 00:34:29;;;;;;;4.75;2.80;;;;;;;-3.47;100.00;100142.28;2577314;55;20164;-72
2021/11/27 00:36:57;;;;;;;4.35;2.22;;;;;;;-3.46;100.00;100146.59;2577820;55;20112;-66
2021/11/27 00:39:25;;;;;;;3.33;2.37;;;;;;;-3.45;100.00;100145.69;2577282;55;20143;-66
2021/11/27 00:41:53;;;;;;;3.97;2.65;;;;;;;-3.45;100.00;100145.69;2577517;55;20118;-67
2021/11/27 00:44:22;;;;;;;3.83;2.37;;;;;;;-3.45;100.00;100145.69;2577329;55;20113;-66
2021/11/27 00:46:51;;;;;;;4.18;2.60;;;;;;;-3.46;100.00;100144.81;2577270;55;20133;-71
2021/11/27 00:49:19;;;;;;;4.70;2.62;;;;;;;-3.43;100.00;100149.09;2577504;55;20109;-72
2021/11/27 00:51:49;;;;;;;4.50;2.62;;;;;;;-3.44;100.00;100145.66;2577557;55;20130;-66
2021/11/27 00:54:19;;;;;;;3.58;2.20;;;;;;;-3.43;100.00;100156.94;2577017;55;20117;-72
2021/11/27 00:56:49;;;;;;;3.70;2.40;;;;;;;-3.43;100.00;100155.19;2577349;55;20538;-67
2021/11/27 00:59:17;;;;;;;4.47;3.03;;;;;;;-3.45;100.00;100154.38;2577525;55;20128;-67
2021/11/27 01:01:46;;;;;;;3.50;2.53;;;;;;;-3.44;100.00;100156.09;2577329;55;20515;-71
2021/11/27 01:04:15;;;;;;;10.05;5.85;;;;;;;-3.43;100.00;100149.09;2577540;55;20125;-72
2021/11/27 01:06:43;;;;;;;5.28;2.97;;;;;;;-3.40;100.00;100151.66;2577572;55;20117;-66
2021/11/27 01:09:15;;;;;;;11.65;4.43;;;;;;;-3.41;100.00;100155.13;2571779;55;20121;-71
2021/11/27 01:11:47;;;;;;;6.25;3.33;;;;;;;-3.42;100.00;100156.91;2577800;55;20117;-72
2021/11/27 01:14:19;;;;;;;5.45;2.80;;;;;;;-3.47;100.00;100155.31;2577164;55;20121;-66
2021/11/27 01:16:50;;;;;;;3.95;2.60;;;;;;;-3.47;100.00;100155.31;2577280;55;20131;-71
2021/11/27 01:19:20;;;;;;;4.03;3.15;;;;;;;-3.47;100.00;100156.16;2577215;55;20124;-72
2021/11/27 01:21:51;;;;;;;12.32;4.85;;;;;;;-3.46;100.00;100150.03;2577267;55;20682;-72
2021/11/27 01:24:21;;;;;;;3.72;2.45;;;;;;;-3.47;100.00;100156.16;2576647;55;20668;-72
2021/11/27 01:26:49;;;;;;;3.70;2.70;;;;;;;-3.47;100.00;100150.09;2577596;55;20117;-72
2021/11/27 01:29:17;;;;;;;3.47;2.05;;;;;;;-3.55;100.00;100150.31;2577218;55;20652;-66
2021/11/27 01:31:45;;;;;;;23.75;5.03;;;;;;;-3.54;100.00;100154.63;2577479;55;20124;-71
2021/11/27 01:34:14;;;;;;;2.75;1.98;;;;;;;-3.66;100.00;100146.22;2577057;55;20127;-70
2021/11/27 01:36:42;;;;;;;3.83;2.28;;;;;;;-3.58;100.00;100166.00;2577403;55;20110;-72
2021/11/27 01:39:10;;;;;;;3.37;2.22;;;;;;;-3.56;100.00;100162.47;2577029;55;20608;-66
2021/11/27 01:41:40;;;;;;;4.15;2.00;;;;;;;-3.60;100.00;100165.19;2571717;55;20106;-66
2021/11/27 01:44:09;;;;;;;3.93;2.40;;;;;;;-3.67;100.00;100165.34;2575328;55;20125;-66
2021/11/27 01:46:39;;;;;;;3.22;2.20;;;;;;;-3.70;100.00;100159.37;2576930;55;20116;-70
2021/11/27 01:49:10;;;;;;;3.15;1.95;;;;;;;-3.71;100.00;100163.72;2577596;55;20117;-70
2021/11/27 01:51:40;;;;;;;4.57;2.50;;;;;;;-3.70;100.00;100175.00;2577483;55;20109;-71
2021/11/27 01:54:12;;;;;;;4.53;2.40;;;;;;;-3.72;100.00;100168.97;2576826;55;20673;-66
2021/11/27 01:56:43;;;;;;;;;;;;;;;-3.59;100.00;100152.13;2577899;55;20114;-66
2021/11/27 01:59:12;;;;;;;2.83;1.65;;;;;;;-3.71;100.00;100157.62;2576955;55;19988;-66
2021/11/27 02:01:42;;;;;;;3.15;1.83;;;;;;;-3.78;100.00;100142.16;2577167;55;20125;-66
2021/11/27 02:04:12;;;;;;;10.15;4.57;;;;;;;-3.78;100.00;100152.59;2577320;55;20172;-66
2021/11/27 02:06:43;;;;;;;8.65;4.00;;;;;;;-3.78;100.00;100156.94;2577409;55;20127;-70
2021/11/27 02:09:17;;;;;;;9.23;3.85;;;;;;;-3.74;100.00;100162.94;2576917;55;20126;-71
2021/11/27 02:11:47;;;;;;;5.15;2.78;;;;;;;-3.78;100.00;100163.00;2577165;55;20119;-72
2021/11/27 02:14:16;;;;;;;3.55;2.60;;;;;;;-3.81;100.00;100167.44;2577011;55;20131;-71
2021/11/27 02:16:47;;;;;;;4.25;2.17;;;;;;;-3.81;100.00;100173.53;2577120;55;20120;-66
2021/11/27 02:19:16;;;;;;;6.57;3.03;;;;;;;-3.83;100.00;100177.91;2572077;55;20503;-66
2021/11/27 02:21:46;;;;;;;7.15;4.03;;;;;;;-3.82;100.00;100165.75;2577344;55;20110;-71
2021/11/27 02:24:17;;;;;;;4.82;2.45;;;;;;;-3.89;100.00;100169.37;2571879;55;20699;-66
2021/11/27 02:26:47;;;;;;;6.28;2.97;;;;;;;-3.95;100.00;100173.00;2577156;55;20121;-71
2021/11/27 02:29:19;;;;;;;3.75;1.92;;;;;;;-3.96;100.00;100189.53;2576815;55;20118;-72
2021/11/27 02:31:48;;;;;;;4.65;3.03;;;;;;;-4.05;100.00;100190.59;2577135;55;20657;-71
2021/11/27 02:34:16;;;;;;;2.87;2.08;;;;;;;-4.09;100.00;100189.81;2576681;55;20109;-66
2021/11/27 02:36:49;;;;;;;4.43;2.33;;;;;;;-4.04;100.00;100192.31;2578015;55;20119;-66
2021/11/27 02:39:19;;;;;;;8.60;2.90;;;;;;;-4.11;100.00;100178.56;2577574;55;20143;-66
2021/11/27 02:41:52;;;;;;;4.60;2.35;;;;;;;-4.14;100.00;100181.22;2577975;55;20137;-71
2021/11/27 02:44:23;;;;;;;5.90;2.60;;;;;;;-4.17;100.00;100177.84;2577869;55;20262;-66
2021/11/27 02:46:52;;;;;;;5.53;2.92;;;;;;;-4.21;100.00;100187.47;2577592;55;20132;-71
2021/11/27 02:49:20;;;;;;;5.30;2.62;;;;;;;-4.27;100.00;100180.63;2577726;55;20105;-71
2021/11/27 02:51:51;;;;;;;4.68;2.47;;;;;;;-4.27;100.00;100191.06;2577898;55;20560;-66
2021/11/27 02:54:19;;;;;;;4.93;2.53;;;;;;;-4.27;100.00;100190.22;2577641;55;20117;-71
2021/11/27 02:56:48;;;;;;;5.60;2.87;;;;;;;-4.25;100.00;100186.69;2577886;55;20142;-71
2021/11/27 02:59:18;;;;;;;5.22;2.12;;;;;;;-4.25;100.00;100188.44;2577790;55;20121;-71
2021/11/27 03:01:49;;;;;;;2.58;1.85;;;;;;;-4.27;100.00;100192.81;2577766;55;20126;-66
2021/11/27 03:04:22;;;;;;;3.92;2.20;;;;;;;-4.31;100.00;100188.56;2577831;55;20121;-66
2021/11/27 03:06:52;;;;;;;6.95;2.25;;;;;;;-4.35;100.00;100193.84;2577761;55;20185;-71
2021/11/27 03:09:21;;;;;;;4.15;2.35;;;;;;;-4.39;100.00;100180.91;2577643;55;20639;-70
2021/11/27 03:11:54;;;;;;;5.70;2.75;;;;;;;-4.38;100.00;100188.72;2577634;55;20101;-71
2021/11/27 03:14:24;;;;;;;5.55;2.83;;;;;;;-4.41;100.00;100196.59;2577396;55;20173;-71
2021/11/27 03:16:54;;;;;;;2.58;2.00;;;;;;;-4.43;100.00;100205.34;2577718;55;20109;-71
2021/11/27 03:19:22;;;;;;;4.37;1.90;;;;;;;-4.45;100.00;100207.97;2577642;55;20135;-66
2021/11/27 03:21:52;;;;;;;7.45;2.70;;;;;;;-4.44;100.00;100216.66;2577561;55;20123;-71
2021/11/27 03:24:20;;;;;;;6.53;2.87;;;;;;;-4.44;100.00;100225.28;2577501;55;20123;-71
2021/11/27 03:26:49;;;;;;;5.68;2.05;;;;;;;-4.43;100.00;100216.59;2577856;55;20125;-66
2021/11/27 03:29:17;;;;;;;2.80;2.20;;;;;;;-4.44;100.00;100220.09;2577495;55;20243;-66
2021/11/27 03:31:45;;;;;;;3.12;2.25;;;;;;;-4.44;100.00;100225.28;2578022;55;20128;-66
2021/11/27 03:34:14;;;;;;;4.35;2.03;;;;;;;-4.45;100.00;100227.97;2577568;55;20125;-66
2021/11/27 03:36:43;;;;;;;4.25;2.33;;;;;;;-4.48;100.00;100234.91;2572265;55;20121;-71
2021/11/27 03:39:13;;;;;;;4.50;2.65;;;;;;;-4.47;100.00;100230.56;2577703;55;20625;-71
2021/11/27 03:41:41;;;;;;;6.97;3.63;;;;;;;-4.47;100.00;100235.78;2577907;55;20631;-71
2021/11/27 03:44:09;;;;;;;5.90;2.90;;;;;;;-4.41;100.00;100229.59;2577589;55;20125;-71
2021/11/27 03:46:39;;;;;;;7.05;3.03;;;;;;;-4.50;100.00;100235.84;2577643;55;20112;-71
2021/11/27 03:49:08;;;;;;;5.03;2.60;;;;;;;-4.55;100.00;100229.88;2577611;55;20635;-65
2021/11/27 03:51:36;;;;;;;6.10;3.25;;;;;;;-4.53;100.00;100235.91;2577385;55;20121;-66
2021/11/27 03:54:05;;;;;;;4.68;2.87;;;;;;;-4.52;100.00;100241.09;2577468;55;20113;-66
2021/11/27 03:56:35;;;;;;;7.10;3.10;;;;;;;-4.54;100.00;100249.81;2577634;55;20488;-66
2021/11/27 03:59:05;;;;;;;5.32;2.97;;;;;;;-4.53;100.00;100246.31;2577477;55;20130;-71
2021/11/27 04:01:34;;;;;;;5.72;2.67;;;;;;;-4.55;100.00;100248.09;2577484;55;20113;-71
2021/11/27 04:04:05;;;;;;;5.00;2.25;;;;;;;-4.57;100.00;100250.72;2577564;55;20135;-66
2021/11/27 04:06:36;;;;;;;4.37;2.20;;;;;;;-4.56;100.00;100262.03;2577587;55;20139;-66
2021/11/27 04:09:06;;;;;;;5.32;3.42;;;;;;;-4.53;100.00;100259.34;2577379;55;20110;-66
2021/11/27 04:11:36;;;;;;;6.30;3.62;;;;;;;-4.51;100.00;100258.44;2577672;55;20119;-71
2021/11/27 04:14:05;;;;;;;5.78;3.12;;;;;;;-4.47;100.00;100251.41;2577201;55;20117;-66
2021/11/27 04:16:35;;;;;;;4.03;2.12;;;;;;;-4.46;100.00;100260.94;2577565;55;20116;-66
2021/11/27 04:19:03;;;;;;;6.28;2.85;;;;;;;-4.49;100.00;100261.84;2577520;55;20124;-66
2021/11/27 04:21:31;;;;;;;2.83;2.20;;;;;;;-4.53;100.00;100268.03;2577362;55;20134;-66
2021/11/27 04:24:00;;;;;;;4.28;2.80;;;;;;;-4.51;100.00;100270.56;2577094;55;20109;-66
2021/11/27 04:26:28;;;;;;;3.47;2.70;;;;;;;-4.48;100.00;100280.97;2577666;55;20118;-71
2021/11/27 04:29:00;;;;;;;7.87;3.62;;;;;;;-4.44;100.00;100282.59;2577418;55;20496;-66
2021/11/27 04:31:32;;;;;;;6.32;3.08;;;;;;;-4.41;100.00;100285.16;2577559;55;20117;-71
2021/11/27 04:34:00;;;;;;;6.03;3.40;;;;;;;-4.45;100.00;100275.69;2577828;55;20118;-66
2021/11/27 04:36:28;;;;;;;7.43;3.85;;;;;;;-4.45;100.00;100282.66;2577023;55;20121;-66
2021/11/27 04:38:56;;;;;;;5.65;3.08;;;;;;;-4.47;100.00;100290.47;2577404;55;20126;-66
2021/11/27 04:41:25;;;;;;;8.02;4.07;;;;;;;-4.54;100.00;100289.75;2577549;55;20109;-66
2021/11/27 04:43:54;;;;;;;5.55;2.95;;;;;;;-4.55;100.00;100290.63;2577085;55;20105;-66
2021/11/27 04:46:24;;;;;;;6.45;3.10;;;;;;;-4.52;100.00;100294.91;2577556;55;20125;-66
2021/11/27 04:48:53;;;;;;;8.55;3.83;;;;;;;-4.50;100.00;100303.56;2577340;55;20115;-71
2021/11/27 04:51:21;;;;;;;6.62;3.75;;;;;;;-4.56;100.00;100304.56;2577103;55;20113;-71
2021/11/27 04:53:49;;;;;;;9.90;3.45;;;;;;;-4.62;100.00;100299.44;2577396;55;20133;-71
2021/11/27 04:56:19;;;;;;;6.57;2.97;;;;;;;-4.64;100.00;100309.88;2577606;55;20114;-66
2021/11/27 04:58:47;;;;;;;6.22;3.42;;;;;;;-4.65;100.00;100297.75;2576987;55;20109;-66
2021/11/27 05:01:15;;;;;;;9.45;3.62;;;;;;;-4.62;100.00;100305.50;2577333;55;20209;-71
2021/11/27 05:03:45;;;;;;;4.93;2.72;;;;;;;-4.61;100.00;100298.56;2577434;55;20516;-71
2021/11/27 05:06:13;;;;;;;12.00;4.70;;;;;;;-4.64;100.00;100302.06;2577281;55;20511;-66
2021/11/27 05:08:42;;;;;;;10.85;4.05;;;;;;;-4.62;100.00;100302.91;2577414;55;20201;-66
2021/11/27 05:11:10;;;;;;;6.85;3.70;;;;;;;-4.57;100.00;100313.22;2577551;55;20113;-71
2021/11/27 05:13:39;;;;;;;7.05;3.60;;;;;;;-4.59;100.00;100308.97;2576857;55;20119;-66
2021/11/27 05:16:07;;;;;;;9.55;3.67;;;;;;;-4.58;100.00;100311.50;2577491;55;20136;-71
2021/11/27 05:18:37;;;;;;;6.70;3.33;;;;;;;-4.60;100.00;100313.28;2577209;55;20113;-66
2021/11/27 05:21:10;;;;;;;6.00;3.25;;;;;;;-4.61;100.00;100306.38;2577257;55;20672;-71
2021/11/27 05:23:39;;;;;;;6.57;3.28;;;;;;;-4.65;100.00;100313.38;2577452;55;20607;-71
2021/11/27 05:26:12;;;;;;;5.25;3.03;;;;;;;-4.59;100.00;100314.16;2576824;55;20531;-71
2021/11/27 05:28:49;;;;;;;6.60;3.17;;;;;;;-4.74;100.00;100303.12;2577114;55;20177;-66
2021/11/27 05:31:18;;;;;;;7.72;3.55;;;;;;;-4.64;100.00;100317.69;2577345;55;20132;-66
2021/11/27 05:33:59;;;;;;;6.22;3.05;;;;;;;-4.64;100.00;100328.09;2577246;55;20131;-71
2021/11/27 05:36:31;;;;;;;6.18;3.50;;;;;;;-4.61;100.00;100316.78;2577110;55;20125;-71
2021/11/27 05:39:00;;;;;;;7.62;2.87;;;;;;;-4.56;100.00;100322.78;2577366;55;20127;-66
2021/11/27 05:41:28;;;;;;;7.90;3.85;;;;;;;-4.57;100.00;100328.00;2577175;55;20128;-66
2021/11/27 05:43:58;;;;;;;5.60;2.85;;;;;;;-4.59;100.00;100324.59;2577023;55;20191;-66
2021/11/27 05:46:27;;;;;;;8.70;5.20;;;;;;;-4.67;100.00;100328.19;2577269;55;20527;-66
2021/11/27 05:48:56;;;;;;;9.82;4.37;;;;;;;-4.65;100.00;100326.41;2577092;55;20131;-66
2021/11/27 05:51:25;;;;;;;5.70;3.28;;;;;;;-4.66;100.00;100335.09;2576980;55;20235;-71
2021/11/27 05:53:55;;;;;;;9.23;3.87;;;;;;;-4.67;100.00;100328.19;2577012;55;20118;-71
2021/11/27 05:56:23;;;;;;;15.50;7.15;;;;;;;-4.67;100.00;100329.91;2577326;55;20113;-66
2021/11/27 05:58:51;;;;;;;4.53;2.87;;;;;;;-4.69;100.00;100323.88;2576658;55;20137;-66
2021/11/27 06:01:19;;;;;;;5.47;2.50;;;;;;;-4.70;100.00;100323.03;2577105;55;20612;-66
2021/11/27 06:03:47;;;;;;;12.75;6.28;;;;;;;-4.71;100.00;100318.72;2577222;55;20128;-71
2021/11/27 06:06:15;;;;;;;8.80;4.25;;;;;;;-4.68;100.00;100321.25;2577539;55;20105;-67
2021/11/27 06:08:43;;;;;;;12.75;7.07;;;;;;;-4.66;100.00;100314.28;2576945;55;20113;-66
2021/11/27 06:11:13;;;;;;;9.13;5.12;;;;;;;-4.64;100.00;100320.31;2578093;55;20114;-71
2021/11/27 06:13:41;;;;;;;6.82;3.75;;;;;;;-4.70;100.00;100315.22;2577854;55;20123;-71
2021/11/27 06:16:09;;;;;;;10.70;4.30;;;;;;;-4.70;100.00;100316.97;2577996;55;20172;-71
2021/11/27 06:18:37;;;;;;;5.93;4.00;;;;;;;-4.72;100.00;100322.19;2578167;55;20516;-66
2021/11/27 06:21:08;;;;;;;8.20;3.53;;;;;;;-4.77;100.00;100319.66;2577933;55;20120;-66
2021/11/27 06:23:36;;;;;;;4.97;2.75;;;;;;;-4.78;100.00;100330.12;2577817;55;20120;-66
2021/11/27 06:26:05;;;;;;;7.15;3.42;;;;;;;-4.80;100.00;100327.53;2577910;55;20125;-66
2021/11/27 06:28:37;;;;;;;6.40;3.60;;;;;;;-4.79;100.00;100334.44;2577849;55;20125;-66
2021/11/27 06:31:05;;;;;;;8.32;4.72;;;;;;;-4.78;100.00;100341.38;2578222;55;20121;-66
2021/11/27 06:33:33;;;;;;;12.55;5.37;;;;;;;-4.72;100.00;100335.19;2577980;55;20184;-66
2021/11/27 06:36:01;;;;;;;7.50;3.92;;;;;;;-4.78;100.00;100335.31;2577677;55;20114;-66
2021/11/27 06:38:29;;;;;;;6.25;2.92;;;;;;;-4.80;100.00;100330.12;2577664;55;20125;-66
2021/11/27 06:40:57;;;;;;;8.13;4.35;;;;;;;-4.82;100.00;100324.09;2578223;55;20172;-71
2021/11/27 06:43:26;;;;;;;7.03;4.75;;;;;;;-4.77;100.00;100321.41;2577557;55;20607;-66
2021/11/27 06:45:57;;;;;;;8.20;5.00;;;;;;;-4.80;100.00;100316.28;2578192;55;20157;-71
2021/11/27 06:48:25;;;;;;;7.40;4.30;;;;;;;-4.82;100.00;100325.84;2577938;55;20497;-72
2021/11/27 06:50:53;;;;;;;9.05;4.00;;;;;;;-4.85;100.00;100333.72;2577534;55;20132;-71
2021/11/27 06:53:21;;;;;;;7.75;3.87;;;;;;;-4.84;100.00;100331.09;2577957;55;20117;-71
2021/11/27 06:55:49;;;;;;;9.77;5.00;;;;;;;-4.79;100.00;100336.22;2576480;55;20126;-71
2021/11/27 06:58:17;;;;;;;8.38;4.40;;;;;;;-4.79;100.00;100333.62;2574428;55;20519;-71
2021/11/27 07:00:46;;;;;;;8.85;5.75;;;;;;;-4.77;100.00;100332.69;2577678;55;20595;-71
2021/11/27 07:03:16;;;;;;;7.43;4.37;;;;;;;-4.78;100.00;100330.97;2572306;55;20113;-66
2021/11/27 07:05:58;;;;;;;14.05;4.95;;;;;;;-4.73;100.00;100323.06;2577503;55;20121;-66
2021/11/27 07:08:27;;;;;;;13.50;6.05;;;;;;;-4.76;100.00;100317.94;2577933;55;20114;-66
2021/11/27 07:10:55;;;;;;;14.55;4.72;;;;;;;-4.79;100.00;100325.81;2577842;55;20120;-66
2021/11/27 07:13:24;;;;;;;10.02;5.85;;;;;;;-4.89;100.00;100306.88;2577301;55;20117;-66
2021/11/27 07:15:52;;;;;;;8.52;5.22;;;;;;;-4.78;100.00;100322.31;2577639;55;20123;-66
2021/11/27 07:18:22;;;;;;;16.40;8.43;;;;;;;-4.77;100.00;100329.22;2578110;55;20124;-66
2021/11/27 07:20:50;;;;;;;8.82;5.20;;;;;;;-4.78;100.00;100319.72;2577638;55;20120;-66
2021/11/27 07:23:18;;;;;;;11.90;6.05;;;;;;;-4.77;100.00;100326.62;2577938;55;20117;-67
2021/11/27 07:25:46;;;;;;;8.73;4.90;;;;;;;-4.78;100.00;100324.91;2577112;55;20627;-66
2021/11/27 07:28:16;;;;;;;9.23;5.20;;;;;;;-4.79;100.00;100318.00;2577248;55;20161;-66
2021/11/27 07:30:44;;;;;;;9.68;5.40;;;;;;;-4.80;100.00;100316.28;2577581;55;20117;-66
2021/11/27 07:33:13;;;;;;;10.15;6.68;;;;;;;-4.84;100.00;100314.59;2577596;55;20121;-66
2021/11/27 07:35:42;;;;;;;10.05;5.97;;;;;;;-4.82;100.00;100312.81;2577614;55;20113;-71
2021/11/27 07:38:10;;;;;;;11.60;7.22;;;;;;;-4.85;100.00;100320.69;2577761;55;20511;-71
2021/11/27 07:40:38;;;;;;;11.70;6.47;;;;;;;-4.86;100.00;100318.97;2577372;55;20105;-71
2021/11/27 07:43:06;;;;;;;11.43;6.03;;;;;;;-4.81;100.00;100330.16;2577781;55;20493;-71
2021/11/27 07:45:36;;;;;;;12.43;7.05;;;;;;;-4.83;100.00;100329.31;2577426;55;20669;-71
2021/11/27 07:48:09;;;;;;;14.90;7.55;;;;;;;-4.90;100.00;100312.97;2577457;55;20132;-71
2021/11/27 07:50:39;;;;;;;15.57;8.02;;;;;;;-4.89;100.00;100323.38;2577709;55;20105;-71
2021/11/27 07:53:09;;;;;;;13.55;7.72;;;;;;;-4.89;100.00;100323.38;2577534;55;20117;-71
2021/11/27 07:55:37;;;;;;;14.23;8.18;;;;;;;-4.87;100.00;100322.47;2572032;55;20120;-71
2021/11/27 07:58:05;;;;;;;21.62;9.50;;;;;;;-4.85;100.00;100331.09;2577317;55;20128;-71
2021/11/27 08:00:33;;;;;;;19.83;9.30;;;;;;;-4.83;100.00;100326.72;2577499;55;20105;-71
2021/11/27 08:03:01;;;;;;;18.55;9.40;;;;;;;-4.79;100.00;100323.19;2577290;55;20630;-71
2021/11/27 08:05:29;;;;;;;15.20;7.72;;;;;;;-4.81;100.00;100320.62;2577409;55;20159;-71
2021/11/27 08:07:57;;;;;;;12.43;7.78;;;;;;;-4.79;100.00;100328.41;2572667;55;20125;-71
2021/11/27 08:10:27;;;;;;;17.65;8.00;;;;;;;-4.81;100.00;100317.12;2577322;55;20139;-71
2021/11/27 08:12:55;;;;;;;13.88;7.20;;;;;;;-4.80;100.00;100330.12;2577809;55;20109;-71
2021/11/27 08:15:23;;;;;;;12.82;6.90;;;;;;;-4.82;100.00;100323.22;2577496;55;20108;-71
2021/11/27 08:17:51;;;;;;;12.73;7.00;;;;;;;-4.80;100.00;100331.91;2577375;55;20117;-71
2021/11/27 08:20:20;;;;;;;14.80;8.20;;;;;;;-4.77;100.00;100329.22;2577586;55;20672;-71
2021/11/27 08:22:49;;;;;;;23.00;11.07;;;;;;;-4.83;100.00;100324.13;2577715;55;20143;-71
2021/11/27 08:25:17;;;;;;;26.77;14.87;;;;;;;-4.85;100.00;100318.97;2577106;55;20619;-72
2021/11/27 08:27:48;;;;;;;36.15;17.65;;;;;;;-4.84;100.00;100330.22;2577502;55;20143;-72
2021/11/27 08:30:16;;;;;;;40.92;18.20;;;;;;;-4.90;100.00;100328.59;2577408;55;20143;-72
2021/11/27 08:32:48;;;;;;;28.90;11.98;;;;;;;-4.93;100.00;100321.69;2577223;55;20117;-66
2021/11/27 08:35:16;;;;;;;;;;;;;;;-4.82;100.00;100315.41;2572316;55;20144;-72
2021/11/27 08:37:44;;;;;;;11.38;6.45;;;;;;;-4.95;100.00;100317.41;2577656;55;19995;-74
2021/11/27 08:40:13;;;;;;;9.82;5.53;;;;;;;-4.97;100.00;100308.75;2577143;55;20121;-71
2021/11/27 08:42:42;;;;;;;12.50;7.18;;;;;;;-5.05;100.00;100301.94;2577712;55;20109;-67
2021/11/27 08:45:14;;;;;;;8.68;5.30;;;;;;;-5.01;100.00;100317.50;2577645;55;20193;-70
2021/11/27 08:47:42;;;;;;;;;;;;;;;-4.90;100.00;100316.44;2577965;55;20102;-71
2021/11/27 08:50:12;;;;;;;15.10;6.45;;;;;;;-4.96;100.00;100311.34;2577485;55;19992;-71
2021/11/27 08:52:40;;;;;;;13.10;7.03;;;;;;;-4.94;100.00;100317.38;2577584;55;20105;-70
2021/11/27 08:55:08;;;;;;;15.98;8.75;;;;;;;-4.89;100.00;100320.75;2576990;55;20117;-68
2021/11/27 08:57:37;;;;;;;19.58;10.45;;;;;;;-4.86;100.00;100317.25;2577806;55;20105;-74
2021/11/27 09:00:07;;;;;;;22.90;9.93;;;;;;;-4.82;100.00;100318.03;2577521;55;20117;-68
2021/11/27 09:02:36;;;;;;;18.23;9.20;;;;;;;-4.81;100.00;100324.94;2577270;55;20113;-75
2021/11/27 09:05:05;;;;;;;16.05;8.95;;;;;;;-4.78;100.00;100324.91;2577278;55;20658;-73
2021/11/27 09:07:33;;;;;;;14.35;7.72;;;;;;;-4.73;100.00;100324.84;2577573;55;20105;-68
2021/11/27 09:10:02;;;;;;;20.77;9.63;;;;;;;-4.71;100.00;100331.72;2571901;55;20109;-67
2021/11/27 09:12:30;;;;;;;21.30;11.88;;;;;;;-4.67;100.00;100315.16;2572763;55;20508;-72
2021/11/27 09:14:58;;;;;;;18.20;10.63;;;;;;;-4.59;100.00;100321.97;2577472;55;20117;-67
2021/11/27 09:17:26;;;;;;;16.77;9.50;;;;;;;-4.51;100.00;100309.66;2576953;55;20124;-71
2021/11/27 09:19:56;;;;;;;18.08;7.20;;;;;;;-4.46;100.00;100315.63;2577362;55;20148;-67
2021/11/27 09:22:24;;;;;;;14.15;6.40;;;;;;;-4.42;100.00;100308.63;2577757;55;20136;-68
2021/11/27 09:24:52;;;;;;;15.95;7.18;;;;;;;-4.36;100.00;100306.75;2576818;55;20662;-68
2021/11/27 09:27:20;;;;;;;11.93;5.53;;;;;;;-4.31;100.00;100313.59;2577552;55;20633;-73
2021/11/27 09:29:48;;;;;;;16.08;7.40;;;;;;;-4.26;100.00;100317.00;2576900;55;20787;-72
2021/11/27 09:32:18;;;;;;;13.38;6.80;;;;;;;-4.22;100.00;100313.41;2577425;55;20725;-66
2021/11/27 09:34:47;;;;;;;14.40;7.72;;;;;;;-4.18;100.00;100320.31;2577287;55;20116;-66
2021/11/27 09:37:17;;;;;;;10.93;5.18;;;;;;;-4.16;100.00;100323.72;2577305;55;20123;-72
2021/11/27 09:39:47;;;;;;;18.58;7.93;;;;;;;-4.06;100.00;100313.97;2576906;55;20132;-71
2021/11/27 09:42:17;;;;;;;8.85;5.25;;;;;;;-4.08;100.00;100323.56;2577350;55;20128;-72
2021/11/27 09:44:48;;;;;;;10.13;4.68;;;;;;;-4.09;100.00;100322.72;2576748;55;20554;-72
2021/11/27 09:47:17;;;;;;;13.23;4.75;;;;;;;-4.01;100.00;100326.91;2577623;55;20120;-73
2021/11/27 09:49:47;;;;;;;8.70;4.82;;;;;;;-3.98;100.00;100311.22;2577290;55;20126;-66
2021/11/27 09:52:18;;;;;;;7.30;3.93;;;;;;;-3.94;100.00;100316.34;2577418;55;20119;-73
2021/11/27 09:54:46;;;;;;;11.02;4.65;;;;;;;-3.89;100.00;100315.34;2576653;55;20686;-73
2021/11/27 09:57:14;;;;;;;10.65;6.80;;;;;;;-3.86;100.00;100315.28;2577076;55;20125;-73
2021/11/27 09:59:46;;;;;;;10.27;4.75;;;;;;;-3.87;100.00;100309.22;2577027;55;20122;-67
2021/11/27 10:02:17;;;;;;;11.40;6.28;;;;;;;-3.80;100.00;100310.81;2577214;55;20105;-67
2021/11/27 10:04:51;;;;;;;7.80;4.82;;;;;;;-3.74;100.00;100306.34;2577179;55;20122;-68
2021/11/27 10:07:22;;;;;;;16.15;7.53;;;;;;;-3.70;100.00;100305.41;2571798;55;20118;-74
2021/11/27 10:09:52;;;;;;;16.52;9.02;;;;;;;-3.66;100.00;100296.59;2576688;55;20464;-74
2021/11/27 10:12:21;;;;;;;14.77;8.35;;;;;;;-3.61;100.00;100289.50;2577166;55;20178;-70
2021/11/27 10:14:49;;;;;;;12.50;6.20;;;;;;;-3.54;100.00;100296.31;2571950;55;20675;-67
2021/11/27 10:17:19;;;;;;;12.45;5.75;;;;;;;-3.54;100.00;100288.47;2576949;55;20675;-73
2021/11/27 10:19:53;;;;;;;42.00;16.75;;;;;;;-3.44;100.00;100306.53;2576657;55;20182;-72
2021/11/27 10:22:26;;;;;;;13.20;7.85;;;;;;;-3.41;100.00;100290.78;2577309;55;20129;-68
2021/11/27 10:24:55;;;;;;;22.87;10.10;;;;;;;-3.34;100.00;100292.38;2571765;55;20129;-72
2021/11/27 10:27:26;;;;;;;20.10;9.10;;;;;;;-3.20;100.00;100291.19;2576946;55;20130;-66
2021/11/27 10:30:09;;;;;;;8.55;4.75;;;;;;;-3.17;100.00;100288.50;2577199;55;20135;-68
2021/11/27 10:32:39;;;;;;;23.77;11.00;;;;;;;-3.11;100.00;100293.53;2572089;55;20544;-78
2021/11/27 10:35:10;;;;;;;28.73;10.25;;;;;;;-3.12;100.00;100281.41;2571944;55;20132;-70
2021/11/27 10:37:42;;;;;;;16.45;7.53;;;;;;;-3.13;100.00;100295.34;2572247;55;20125;-76
2021/11/27 10:40:12;;;;;;;30.95;13.40;;;;;;;-3.17;100.00;100291.94;2576476;55;20143;-72
2021/11/27 10:42:46;;;;;;;23.40;9.45;;;;;;;-3.17;100.00;100285.88;2576715;55;20378;-67
2021/11/27 10:45:17;;;;;;;13.32;5.53;;;;;;;-3.26;100.00;100277.37;2572049;55;20113;-68
2021/11/27 10:47:46;;;;;;;25.15;10.82;;;;;;;-3.29;100.00;100289.66;2576852;55;20109;-69
2021/11/27 10:50:19;;;;;;;15.82;6.95;;;;;;;-3.25;100.00;100276.50;2577120;55;20529;-68
2021/11/27 10:52:54;;;;;;;11.07;4.97;;;;;;;-3.26;100.00;100285.22;2577160;55;20105;-68
2021/11/27 10:55:24;;;;;;;38.83;15.13;;;;;;;-3.22;100.00;100284.22;2577181;55;20160;-67
2021/11/27 10:57:55;;;;;;;13.90;6.50;;;;;;;-3.30;100.00;100273.16;2579613;55;20135;-67
2021/11/27 11:00:35;;;;;;;9.67;4.30;;;;;;;-3.29;100.00;100290.53;2576038;55;20128;-68
2021/11/27 11:03:06;;;;;;;10.13;5.18;;;;;;;-3.31;100.00;100279.25;2576348;55;20125;-68
2021/11/27 11:05:36;;;;;;;49.30;29.23;;;;;;;-3.28;100.00;100276.56;2576151;55;20514;-69
2021/11/27 11:08:08;;;;;;;14.50;5.62;;;;;;;-3.32;100.00;100279.28;2576416;55;20119;-68
2021/11/27 11:10:37;;;;;;;10.77;4.25;;;;;;;-3.36;100.00;100274.16;2577150;55;20127;-68
2021/11/27 11:13:07;;;;;;;6.43;3.47;;;;;;;-3.40;100.00;100275.13;2576612;55;20105;-70
2021/11/27 11:15:38;;;;;;;4.50;2.35;;;;;;;-3.42;100.00;100274.31;2576444;55;20120;-69
2021/11/27 11:18:11;;;;;;;;;;;;;;;-3.32;100.00;100274.91;2577057;55;20507;-69
2021/11/27 11:20:44;;;;;;;7.65;3.60;;;;;;;-3.43;100.00;100263.87;2576978;55;20019;-67
2021/11/27 11:23:18;;;;;;;12.65;5.87;;;;;;;-3.41;100.00;100275.13;2578631;55;20116;-69
2021/11/27 11:26:00;;;;;;;13.82;6.80;;;;;;;-3.39;100.00;100269.00;2579803;55;20596;-67